createdAt,value
2024-04-12T00:01:49.709Z,86.56
2024-04-12T00:04:18.934Z,86.43
2024-04-12T00:06:47.644Z,86.33
2024-04-12T00:09:20.845Z,86.25
2024-04-12T00:11:55.815Z,86.09
2024-04-12T00:14:23.904Z,85.94
2024-04-12T00:16:53.741Z,85.89
2024-04-12T00:19:23.938Z,85.93
2024-04-12T00:21:54.657Z,85.99
2024-04-12T00:24:30.336Z,85.94
2024-04-12T00:27:00.319Z,85.95
2024-04-12T00:29:32.042Z,85.78
2024-04-12T00:32:05.600Z,85.80
2024-04-12T00:34:40.414Z,85.84
2024-04-12T00:37:10.194Z,85.92
2024-04-12T00:39:39.997Z,85.62
2024-04-12T00:42:09.597Z,85.35
2024-04-12T00:44:37.279Z,85.40
2024-04-12T00:47:08.737Z,84.97
2024-04-12T00:49:38.090Z,84.72
2024-04-12T00:52:08.237Z,84.80
2024-04-12T00:54:37.633Z,84.93
2024-04-12T00:57:05.122Z,85.06
2024-04-12T00:59:36.351Z,84.91
2024-04-12T01:02:10.040Z,85.05
2024-04-12T01:04:38.120Z,85.26
2024-04-12T01:07:08.276Z,85.45
2024-04-12T01:09:36.814Z,85.50
2024-04-12T01:12:08.280Z,85.44
2024-04-12T01:14:36.732Z,85.60
2024-04-12T01:17:04.224Z,85.57
2024-04-12T01:19:31.761Z,85.43
2024-04-12T01:22:01.293Z,85.46
2024-04-12T01:24:28.556Z,85.60
2024-04-12T01:26:57.308Z,85.63
2024-04-12T01:29:25.288Z,85.69
2024-04-12T01:31:55.237Z,85.74
2024-04-12T01:34:22.664Z,85.78
2024-04-12T01:36:54.045Z,85.90
2024-04-12T01:39:22.670Z,85.94
2024-04-12T01:41:49.884Z,86.02
2024-04-12T01:44:25.497Z,85.99
2024-04-12T01:46:54.115Z,85.69
2024-04-12T01:49:23.906Z,85.60
2024-04-12T01:51:51.326Z,85.66
2024-04-12T01:54:19.367Z,85.61
2024-04-12T01:56:51.967Z,85.57
2024-04-12T01:59:23.736Z,85.65
2024-04-12T02:01:51.475Z,85.73
2024-04-12T02:04:20.001Z,85.82
2024-04-12T02:06:49.482Z,85.94
2024-04-12T02:09:17.844Z,86.14
2024-04-12T02:11:46.709Z,86.22
2024-04-12T02:14:15.938Z,86.26
2024-04-12T02:16:43.568Z,86.23
2024-04-12T02:19:11.515Z,86.29
2024-04-12T02:21:40.073Z,86.37
2024-04-12T02:24:10.181Z,86.35
2024-04-12T02:26:38.583Z,86.23
2024-04-12T02:29:06.326Z,86.35
2024-04-12T02:31:36.817Z,86.40
2024-04-12T02:34:04.297Z,86.46
2024-04-12T02:36:34.541Z,86.54
2024-04-12T02:39:08.318Z,86.46
2024-04-12T02:41:39.312Z,86.47
2024-04-12T02:44:08.029Z,86.37
2024-04-12T02:46:35.904Z,86.38
2024-04-12T02:49:08.354Z,86.27
2024-04-12T02:51:35.576Z,86.26
2024-04-12T02:54:02.944Z,86.16
2024-04-12T02:56:32.886Z,86.12
2024-04-12T02:59:00.840Z,86.14
2024-04-12T03:01:28.135Z,86.07
2024-04-12T03:03:57.952Z,86.04
2024-04-12T03:06:34.029Z,86.24
2024-04-12T03:09:03.018Z,86.13
2024-04-12T03:11:36.293Z,86.23
2024-04-12T03:14:13.193Z,86.26
2024-04-12T03:16:45.901Z,86.22
2024-04-12T03:19:16.954Z,86.18
2024-04-12T03:21:45.136Z,86.22
2024-04-12T03:24:12.735Z,86.28
2024-04-12T03:26:44.761Z,86.34
2024-04-12T03:29:13.481Z,86.36
2024-04-12T03:31:41.042Z,86.36
2024-04-12T03:34:14.424Z,86.42
2024-04-12T03:36:41.587Z,86.42
2024-04-12T03:39:26.360Z,86.48
2024-04-12T03:41:59.615Z,86.57
2024-04-12T03:44:34.004Z,86.52
2024-04-12T03:47:11.270Z,86.52
2024-04-12T03:49:42.447Z,86.51
2024-04-12T03:52:16.120Z,86.58
2024-04-12T03:54:47.976Z,86.56
2024-04-12T03:57:16.749Z,86.59
2024-04-12T03:59:47.251Z,86.65
2024-04-12T04:02:17.282Z,86.73
2024-04-12T04:04:46.978Z,86.67
2024-04-12T04:07:17.183Z,86.82
2024-04-12T04:09:45.191Z,86.82
2024-04-12T04:12:17.291Z,86.85
2024-04-12T04:14:50.826Z,86.91
2024-04-12T04:17:19.925Z,86.98
2024-04-12T04:19:47.459Z,87.02
2024-04-12T04:22:41.069Z,86.97
2024-04-12T04:25:10.316Z,87.07
2024-04-12T04:27:38.594Z,87.08
2024-04-12T04:30:07.656Z,87.15
2024-04-12T04:32:35.254Z,87.17
2024-04-12T04:35:10.866Z,87.29
2024-04-12T04:37:39.871Z,87.28
2024-04-12T04:40:21.660Z,87.34
2024-04-12T04:42:51.757Z,87.27
2024-04-12T04:45:20.941Z,87.27
2024-04-12T04:47:51.139Z,87.19
2024-04-12T04:50:21.070Z,87.18
2024-04-12T04:52:48.702Z,87.17
2024-04-12T04:55:16.063Z,87.18
2024-04-12T04:57:48.663Z,87.09
2024-04-12T05:00:24.048Z,87.12
2024-04-12T05:02:54.540Z,87.19
2024-04-12T05:05:28.996Z,87.12
2024-04-12T05:07:58.979Z,87.06
2024-04-12T05:10:35.888Z,86.92
2024-04-12T05:13:07.967Z,86.79
2024-04-12T05:15:42.516Z,86.69
2024-04-12T05:18:13.921Z,86.65
2024-04-12T05:20:43.168Z,86.59
2024-04-12T05:23:15.894Z,86.56
2024-04-12T05:25:44.814Z,86.38
2024-04-12T05:28:13.769Z,86.43
2024-04-12T05:30:45.870Z,86.43
2024-04-12T05:33:17.715Z,86.36
2024-04-12T05:35:46.830Z,86.48
2024-04-12T05:38:14.124Z,86.65
2024-04-12T05:40:53.170Z,86.62
2024-04-12T05:43:23.057Z,86.62
2024-04-12T05:45:52.210Z,86.57
2024-04-12T05:48:24.442Z,86.57
2024-04-12T05:50:59.367Z,86.55
2024-04-12T05:53:33.899Z,86.41
2024-04-12T05:56:21.615Z,86.35
2024-04-12T05:58:53.380Z,86.36
2024-04-12T06:01:26.028Z,86.31
2024-04-12T06:03:56.305Z,86.31
2024-04-12T06:06:24.564Z,86.01
2024-04-12T06:08:53.890Z,85.80
2024-04-12T06:11:22.827Z,85.80
2024-04-12T06:13:55.040Z,85.84
2024-04-12T06:16:22.601Z,85.90
2024-04-12T06:18:52.504Z,85.76
2024-04-12T06:21:20.400Z,85.71
2024-04-12T06:23:50.573Z,85.69
2024-04-12T06:26:18.116Z,85.53
2024-04-12T06:28:45.926Z,85.66
2024-04-12T06:31:21.273Z,85.66
2024-04-12T06:33:50.908Z,85.58
2024-04-12T06:36:18.913Z,85.71
2024-04-12T06:38:46.404Z,85.88
2024-04-12T06:41:16.865Z,85.57
2024-04-12T06:43:44.287Z,85.53
2024-04-12T06:46:13.175Z,85.05
2024-04-12T06:48:41.623Z,85.29
2024-04-12T06:51:13.957Z,85.27
2024-04-12T06:53:46.273Z,84.95
2024-04-12T06:56:21.524Z,84.87
2024-04-12T06:58:49.949Z,84.85
2024-04-12T07:01:23.668Z,84.80
2024-04-12T07:03:53.932Z,84.42
2024-04-12T07:06:21.734Z,84.51
2024-04-12T07:08:52.409Z,84.23
2024-04-12T07:11:22.650Z,84.29
2024-04-12T07:13:54.808Z,84.39
2024-04-12T07:16:22.698Z,84.55
2024-04-12T07:18:53.363Z,84.20
2024-04-12T07:21:24.574Z,83.98
2024-04-12T07:23:52.949Z,84.37
2024-04-12T07:26:28.563Z,84.10
2024-04-12T07:29:03.279Z,84.14
2024-04-12T07:31:36.281Z,83.62
2024-04-12T07:34:06.814Z,83.86
2024-04-12T07:36:35.769Z,82.93
2024-04-12T07:39:05.994Z,82.77
2024-04-12T07:41:39.152Z,82.37
2024-04-12T07:44:06.706Z,82.17
2024-04-12T07:46:35.265Z,81.65
2024-04-12T07:49:08.677Z,82.05
2024-04-12T07:51:40.775Z,81.66
2024-04-12T07:54:13.741Z,81.66
2024-04-12T07:56:44.943Z,81.17
2024-04-12T07:59:29.062Z,80.91
2024-04-12T08:01:59.267Z,80.52
2024-04-12T08:04:30.464Z,79.65
2024-04-12T08:06:58.040Z,80.50
2024-04-12T08:09:36.446Z,80.48
2024-04-12T08:12:25.024Z,79.66
2024-04-12T08:15:08.703Z,78.71
2024-04-12T08:17:41.499Z,79.38
2024-04-12T08:20:15.723Z,79.16
2024-04-12T08:22:44.961Z,78.66
2024-04-12T08:25:20.095Z,78.66
2024-04-12T08:27:48.491Z,78.52
2024-04-12T08:30:21.546Z,78.44
2024-04-12T08:32:52.988Z,78.73
2024-04-12T08:35:21.425Z,77.82
2024-04-12T08:37:53.040Z,78.10
2024-04-12T08:40:26.453Z,77.88
2024-04-12T08:43:11.722Z,77.63
2024-04-12T08:45:45.051Z,77.39
2024-04-12T08:48:14.182Z,77.16
2024-04-12T08:50:42.965Z,76.24
2024-04-12T08:53:18.981Z,76.24
2024-04-12T08:55:47.218Z,76.32
2024-04-12T08:58:22.671Z,76.87
2024-04-12T09:00:55.181Z,74.88
2024-04-12T09:03:32.087Z,75.01
2024-04-12T09:05:59.625Z,75.23
2024-04-12T09:08:32.977Z,75.19
2024-04-12T09:11:04.976Z,75.25
2024-04-12T09:13:34.848Z,73.11
2024-04-12T09:16:05.209Z,73.38
2024-04-12T09:18:46.002Z,72.44
2024-04-12T09:21:25.900Z,70.93
2024-04-12T09:23:58.751Z,71.22
2024-04-12T09:26:27.193Z,70.73
2024-04-12T09:29:10.462Z,70.92
2024-04-12T09:31:59.422Z,70.95
2024-04-12T09:34:36.831Z,69.99
2024-04-12T09:37:28.649Z,69.10
2024-04-12T09:40:04.190Z,68.83
2024-04-12T09:42:47.378Z,67.79
2024-04-12T09:45:20.977Z,68.68
2024-04-12T09:48:12.402Z,67.36
2024-04-12T09:51:01.284Z,68.86
2024-04-12T09:53:49.635Z,67.42
2024-04-12T09:56:36.293Z,67.50
2024-04-12T09:59:32.415Z,67.71
2024-04-12T10:02:19.450Z,67.82
2024-04-12T10:05:08.840Z,68.30
2024-04-12T10:07:57.887Z,68.61
2024-04-12T10:10:49.435Z,68.71
2024-04-12T10:13:37.147Z,67.29
2024-04-12T10:16:23.422Z,66.79
2024-04-12T10:19:32.728Z,67.36
2024-04-12T10:22:30.762Z,67.35
2024-04-12T10:25:17.519Z,66.93
2024-04-12T10:28:10.278Z,66.91
2024-04-12T10:31:03.702Z,67.53
2024-04-12T10:33:50.129Z,67.81
2024-04-12T10:36:44.210Z,66.99
2024-04-12T10:39:14.553Z,66.04
2024-04-12T10:41:46.816Z,67.22
2024-04-12T10:44:14.392Z,67.05
2024-04-12T10:46:48.989Z,67.42
2024-04-12T10:49:16.356Z,67.02
2024-04-12T10:51:43.629Z,66.75
2024-04-12T10:54:25.321Z,66.59
2024-04-12T10:56:56.919Z,66.18
2024-04-12T10:59:29.776Z,66.16
2024-04-12T11:02:01.806Z,66.51
2024-04-12T11:04:36.489Z,65.97
2024-04-12T11:07:04.130Z,66.02
2024-04-12T11:09:39.838Z,64.97
2024-04-12T11:12:13.911Z,65.38
2024-04-12T11:14:51.682Z,65.04
2024-04-12T11:17:37.797Z,64.06
2024-04-12T11:20:31.670Z,64.17
2024-04-12T11:23:27.270Z,64.84
2024-04-12T11:26:14.413Z,64.07
2024-04-12T11:29:00.496Z,64.11
2024-04-12T11:31:40.485Z,63.93
2024-04-12T11:34:12.180Z,64.75
2024-04-12T11:36:41.356Z,65.49
2024-04-12T11:39:25.020Z,66.00
2024-04-12T11:41:58.316Z,65.36
2024-04-12T11:44:25.629Z,63.06
2024-04-12T11:47:07.001Z,63.78
2024-04-12T11:49:46.938Z,62.94
2024-04-12T11:52:17.997Z,63.08
2024-04-12T11:55:00.827Z,62.83
2024-04-12T11:57:34.141Z,62.68
2024-04-12T12:00:02.383Z,63.08
2024-04-12T12:02:45.574Z,63.08
2024-04-12T12:05:19.015Z,62.94
2024-04-12T12:07:50.566Z,62.90
2024-04-12T12:10:17.849Z,62.69
2024-04-12T12:12:45.570Z,62.65
2024-04-12T12:15:16.117Z,61.69
2024-04-12T12:17:43.592Z,62.37
2024-04-12T12:20:11.493Z,62.10
2024-04-12T12:22:39.754Z,61.87
2024-04-12T12:25:09.221Z,62.38
2024-04-12T12:27:36.554Z,62.39
2024-04-12T12:30:15.135Z,62.47
2024-04-12T12:32:45.997Z,61.85
2024-04-12T12:35:23.887Z,62.01
2024-04-12T12:37:53.204Z,61.80
2024-04-12T12:40:22.693Z,62.10
2024-04-12T12:42:53.592Z,62.20
2024-04-12T12:45:21.584Z,62.44
2024-04-12T12:47:49.414Z,63.60
2024-04-12T12:50:25.564Z,62.15
2024-04-12T12:52:53.083Z,61.81
2024-04-12T12:55:29.927Z,61.88
2024-04-12T12:58:23.370Z,60.99
2024-04-12T13:00:50.810Z,60.09
2024-04-12T13:03:27.318Z,59.32
2024-04-12T13:05:59.556Z,59.32
2024-04-12T13:08:28.094Z,59.10
2024-04-12T13:10:58.689Z,59.54
2024-04-12T13:13:27.966Z,59.37
2024-04-12T13:15:59.484Z,59.22
2024-04-12T13:18:33.164Z,58.83
2024-04-12T13:21:00.836Z,59.53
2024-04-12T13:23:28.772Z,59.19
2024-04-12T13:25:59.070Z,59.15
2024-04-12T13:28:26.484Z,59.07
2024-04-12T13:30:53.561Z,60.01
2024-04-12T13:33:21.262Z,60.02
2024-04-12T13:35:53.641Z,60.54
2024-04-12T13:38:21.447Z,61.08
2024-04-12T13:40:50.881Z,61.19
2024-04-12T13:43:18.455Z,61.38
2024-04-12T13:46:07.365Z,60.97
2024-04-12T13:48:54.698Z,60.88
2024-04-12T13:51:30.529Z,61.02
2024-04-12T13:53:59.559Z,61.25
2024-04-12T13:56:28.100Z,60.60
2024-04-12T13:59:12.826Z,61.60
2024-04-12T14:01:42.809Z,60.78
2024-04-12T14:04:19.912Z,60.74
2024-04-12T14:06:48.591Z,61.04
2024-04-12T14:09:24.374Z,60.81
2024-04-12T14:11:55.715Z,60.22
2024-04-12T14:14:24.474Z,59.87
2024-04-12T14:16:53.215Z,59.65
2024-04-12T14:19:21.662Z,59.85
2024-04-12T14:21:58.851Z,59.69
2024-04-12T14:24:45.937Z,60.15
2024-04-12T14:27:13.998Z,59.79
2024-04-12T14:29:41.599Z,59.61
2024-04-12T14:32:11.578Z,60.18
2024-04-12T14:34:46.887Z,60.52
2024-04-12T14:37:22.703Z,60.29
2024-04-12T14:39:54.514Z,60.26
2024-04-12T14:42:22.221Z,60.48
2024-04-12T14:44:52.215Z,60.18
2024-04-12T14:47:22.290Z,60.04
2024-04-12T14:49:49.954Z,60.59
2024-04-12T14:52:17.365Z,59.71
2024-04-12T14:54:44.655Z,58.37
2024-04-12T14:57:19.492Z,57.84
2024-04-12T14:59:47.460Z,57.34
2024-04-12T15:02:16.244Z,56.77
2024-04-12T15:05:04.883Z,56.80
2024-04-12T15:07:50.601Z,57.22
2024-04-12T15:10:36.256Z,57.59
2024-04-12T15:13:22.324Z,56.60
2024-04-12T15:16:08.179Z,58.00
2024-04-12T15:18:53.795Z,56.37
2024-04-12T15:21:39.785Z,56.78
2024-04-12T15:24:25.523Z,56.65
2024-04-12T15:27:11.788Z,57.52
2024-04-12T15:29:57.777Z,57.41
2024-04-12T15:32:43.827Z,55.49
2024-04-12T15:35:29.651Z,55.05
2024-04-12T15:38:15.577Z,54.71
2024-04-12T15:41:01.603Z,54.19
2024-04-12T15:43:49.444Z,55.31
2024-04-12T15:46:35.527Z,55.84
2024-04-12T15:49:08.856Z,55.87
2024-04-12T15:51:39.844Z,56.09
2024-04-12T15:54:08.455Z,56.20
2024-04-12T15:56:35.907Z,56.16
2024-04-12T15:59:21.894Z,56.44
2024-04-12T16:02:08.027Z,56.78
2024-04-12T16:04:53.920Z,56.63
2024-04-12T16:07:39.793Z,57.70
2024-04-12T16:10:26.090Z,56.98
2024-04-12T16:12:53.443Z,57.43
2024-04-12T16:15:20.891Z,57.60
2024-04-12T16:17:48.232Z,57.94
2024-04-12T16:20:16.664Z,58.08
2024-04-12T16:22:43.852Z,57.47
2024-04-12T16:25:11.420Z,57.12
2024-04-12T16:27:38.880Z,57.46
2024-04-12T16:30:06.407Z,57.95
2024-04-12T16:32:33.590Z,58.17
2024-04-12T16:35:00.825Z,58.13
2024-04-12T16:37:29.027Z,58.19
2024-04-12T16:39:56.469Z,58.66
2024-04-12T16:42:23.818Z,58.54
2024-04-12T16:44:50.981Z,58.53
2024-04-12T16:47:18.279Z,58.53
2024-04-12T16:49:45.682Z,58.88
2024-04-12T16:52:12.864Z,59.09
2024-04-12T16:54:39.971Z,59.19
2024-04-12T16:57:07.413Z,59.00
2024-04-12T16:59:34.660Z,59.66
2024-04-12T17:02:02.134Z,59.21
2024-04-12T17:04:29.341Z,59.56
2024-04-12T17:06:56.638Z,60.19
2024-04-12T17:09:25.899Z,60.25
2024-04-12T17:11:53.299Z,60.43
2024-04-12T17:14:20.524Z,60.40
2024-04-12T17:16:49.559Z,60.59
2024-04-12T17:19:16.774Z,60.41
2024-04-12T17:21:44.050Z,60.62
2024-04-12T17:24:15.027Z,61.09
2024-04-12T17:26:43.669Z,61.55
2024-04-12T17:29:11.074Z,61.55
2024-04-12T17:31:38.767Z,61.67
2024-04-12T17:34:05.966Z,61.81
2024-04-12T17:36:33.210Z,62.13
2024-04-12T17:39:10.025Z,62.24
2024-04-12T17:43:59.974Z,61.90
2024-04-12T17:46:28.609Z,62.27
2024-04-12T17:48:59.160Z,62.28
2024-04-12T17:51:26.670Z,62.65
2024-04-12T17:53:58.539Z,62.40
2024-04-12T17:56:25.681Z,62.56
2024-04-12T17:58:52.812Z,62.77
2024-04-12T18:01:22.138Z,62.58
2024-04-12T18:03:51.020Z,62.82
2024-04-12T18:06:18.434Z,63.09
2024-04-12T18:08:45.647Z,63.37
2024-04-12T18:11:13.661Z,63.45
2024-04-12T18:13:40.936Z,63.23
2024-04-12T18:16:08.137Z,63.46
2024-04-12T18:18:35.347Z,63.52
2024-04-12T18:21:07.599Z,63.75
2024-04-12T18:23:36.627Z,63.76
2024-04-12T18:26:04.048Z,64.18
2024-04-12T18:28:31.193Z,64.24
2024-04-12T18:31:00.790Z,64.31
2024-04-12T18:33:32.654Z,64.40
2024-04-12T18:36:13.171Z,64.44
2024-04-12T18:38:59.068Z,64.63
2024-04-12T18:41:44.943Z,64.62
2024-04-12T18:44:30.995Z,64.59
2024-04-12T18:46:58.279Z,64.82
2024-04-12T18:49:25.465Z,64.91
2024-04-12T18:51:53.343Z,65.11
2024-04-12T18:54:20.651Z,65.13
2024-04-12T18:56:47.932Z,65.28
2024-04-12T18:59:15.737Z,65.30
2024-04-12T19:01:44.583Z,65.39
2024-04-12T19:04:14.616Z,65.63
2024-04-12T19:06:42.071Z,65.57
2024-04-12T19:09:11.838Z,65.64
2024-04-12T19:11:39.105Z,65.70
2024-04-12T19:14:06.801Z,65.84
2024-04-12T19:16:34.090Z,65.80
2024-04-12T19:19:01.456Z,65.95
2024-04-12T19:21:29.631Z,66.04
2024-04-12T19:23:57.554Z,66.30
2024-04-12T19:26:24.972Z,66.34
2024-04-12T19:28:52.337Z,66.39
2024-04-12T19:31:19.775Z,66.44
2024-04-12T19:33:48.354Z,66.60
2024-04-12T19:36:15.695Z,66.59
2024-04-12T19:38:45.391Z,66.78
2024-04-12T19:41:15.730Z,66.86
2024-04-12T19:43:45.905Z,66.92
2024-04-12T19:46:15.763Z,67.06
2024-04-12T19:48:43.884Z,67.18
2024-04-12T19:51:11.395Z,67.08
2024-04-12T19:53:38.695Z,67.19
2024-04-12T19:56:08.098Z,67.27
2024-04-12T19:58:40.123Z,67.24
2024-04-12T20:01:11.224Z,67.34
2024-04-12T20:03:39.422Z,67.40
2024-04-12T20:06:07.404Z,67.45
2024-04-12T20:08:34.771Z,67.57
2024-04-12T20:11:07.377Z,67.65
2024-04-12T20:13:36.056Z,67.79
2024-04-12T20:16:06.218Z,67.85
2024-04-12T20:18:35.633Z,68.01
2024-04-12T20:21:05.570Z,68.14
2024-04-12T20:23:34.634Z,68.15
2024-04-12T20:26:13.259Z,68.28
2024-04-12T20:28:48.207Z,68.47
2024-04-12T20:31:24.280Z,68.56
2024-04-12T20:34:06.038Z,68.74
2024-04-12T20:36:38.328Z,68.92
2024-04-12T20:39:08.997Z,69.09
2024-04-12T20:41:43.943Z,69.34
2024-04-12T20:44:14.135Z,69.46
2024-04-12T20:46:41.369Z,69.67
2024-04-12T20:49:08.768Z,69.89
2024-04-12T20:51:36.179Z,69.99
2024-04-12T20:54:05.758Z,70.16
2024-04-12T20:56:33.494Z,70.28
2024-04-12T20:59:02.787Z,70.43
2024-04-12T21:01:33.621Z,70.62
2024-04-12T21:04:01.799Z,70.99
2024-04-12T21:06:31.929Z,71.22
2024-04-12T21:08:59.546Z,71.53
2024-04-12T21:11:27.362Z,71.85
2024-04-12T21:13:54.842Z,72.18
2024-04-12T21:16:22.265Z,72.41
2024-04-12T21:18:52.083Z,72.68
2024-04-12T21:21:19.913Z,72.84
2024-04-12T21:23:47.872Z,72.98
2024-04-12T21:26:15.307Z,73.20
2024-04-12T21:28:42.963Z,73.30
2024-04-12T21:31:10.247Z,73.50
2024-04-12T21:33:38.878Z,73.62
2024-04-12T21:36:07.286Z,73.70
2024-04-12T21:38:40.168Z,73.81
2024-04-12T21:41:07.392Z,73.89
2024-04-12T21:43:39.438Z,73.86
2024-04-12T21:46:12.508Z,73.99
2024-04-12T21:48:41.539Z,74.01
2024-04-12T21:51:10.231Z,74.03
2024-04-12T21:53:39.265Z,74.14
2024-04-12T21:56:09.263Z,74.18
2024-04-12T21:58:36.757Z,74.26
2024-04-12T22:01:09.779Z,74.36
2024-04-12T22:03:38.228Z,74.39
2024-04-12T22:06:06.861Z,74.39
2024-04-12T22:08:35.241Z,74.43
2024-04-12T22:11:09.766Z,74.52
2024-04-12T22:13:38.649Z,74.52
2024-04-12T22:16:11.451Z,74.59
2024-04-12T22:18:40.708Z,74.56
2024-04-12T22:21:13.435Z,74.63
2024-04-12T22:23:46.796Z,74.65
2024-04-12T22:26:15.898Z,74.72
2024-04-12T22:28:45.566Z,74.77
2024-04-12T22:31:18.410Z,74.84
2024-04-12T22:33:50.728Z,74.93
2024-04-12T22:36:21.125Z,74.93
2024-04-12T22:38:49.635Z,75.09
2024-04-12T22:41:17.704Z,75.14
2024-04-12T22:43:45.769Z,75.14
2024-04-12T22:46:15.256Z,75.22
2024-04-12T22:48:44.078Z,75.19
2024-04-12T22:51:22.994Z,75.23
2024-04-12T22:53:51.128Z,75.17
2024-04-12T22:56:19.096Z,75.20
2024-04-12T22:58:46.430Z,75.24
2024-04-12T23:01:13.774Z,75.22
2024-04-12T23:03:42.370Z,75.21
2024-04-12T23:06:09.557Z,75.14
2024-04-12T23:08:36.694Z,75.20
2024-04-12T23:11:06.613Z,75.10
2024-04-12T23:13:34.895Z,75.09
2024-04-12T23:16:02.965Z,75.02
2024-04-12T23:18:30.919Z,75.04
2024-04-12T23:20:58.260Z,74.94
2024-04-12T23:23:25.481Z,75.02
2024-04-12T23:25:52.713Z,74.95
2024-04-12T23:28:19.858Z,75.00
2024-04-12T23:30:48.188Z,74.93
2024-04-12T23:33:15.413Z,74.90
2024-04-12T23:35:42.655Z,74.78
2024-04-12T23:38:09.942Z,74.79
2024-04-12T23:40:37.066Z,74.69
2024-04-12T23:43:05.063Z,74.66
2024-04-12T23:45:34.329Z,74.61
2024-04-12T23:48:01.823Z,74.62
2024-04-12T23:50:29.746Z,74.53
2024-04-12T23:52:57.849Z,74.47
2024-04-12T23:55:25.134Z,74.49
2024-04-12T23:57:53.943Z,74.47
